Terminal Aerodrome Forecast
Issued by NWS

Home | Current Version | Previous Version | Text Only | Print | Product List | Glossary On
Versions: 1 2 3 4 5 6 7 8 9 10 11 12 13 14 15 16 17
000
FTUS43 KIND 201100
TAFBMG
TAF
KBMG 201120Z 2012/2112 00000KT 5SM BR OVC020
      TEMPO 2012/2013 -SN BKN008
     FM201600 VRB03KT P6SM OVC025
     FM210500 12002KT P6SM SCT030 BKN060
      AMD LTD TO CLD VIS AND WIND TIL 201400=

USA.gov is the U.S. government's official web portal to all federal, state and local government web resources and services.